sensor_id;sensor_type;location;lat;lon;timestamp;P1;durP1;ratioP1;P2;durP2;ratioP2
23113;SDS011;11726;50.122;8.832;2023-07-29T00:01:10;2.60;;;2.40;;
23113;SDS011;11726;50.122;8.832;2023-07-29T00:03:37;2.85;;;2.55;;
23113;SDS011;11726;50.122;8.832;2023-07-29T00:06:04;6.63;;;2.53;;
23113;SDS011;11726;50.122;8.832;2023-07-29T00:08:30;3.45;;;2.70;;
23113;SDS011;11726;50.122;8.832;2023-07-29T00:10:57;4.38;;;2.80;;
23113;SDS011;11726;50.122;8.832;2023-07-29T00:13:24;5.68;;;2.50;;
23113;SDS011;11726;50.122;8.832;2023-07-29T00:15:53;2.30;;;2.10;;
23113;SDS011;11726;50.122;8.832;2023-07-29T00:18:21;4.20;;;2.67;;
23113;SDS011;11726;50.122;8.832;2023-07-29T00:20:48;3.40;;;1.95;;
23113;SDS011;11726;50.122;8.832;2023-07-29T00:23:17;2.60;;;2.38;;
23113;SDS011;11726;50.122;8.832;2023-07-29T00:25:45;7.65;;;2.65;;
23113;SDS011;11726;50.122;8.832;2023-07-29T00:28:12;5.00;;;2.85;;
23113;SDS011;11726;50.122;8.832;2023-07-29T00:30:39;2.53;;;2.00;;
23113;SDS011;11726;50.122;8.832;2023-07-29T00:33:06;3.15;;;2.60;;
23113;SDS011;11726;50.122;8.832;2023-07-29T00:35:32;4.07;;;2.53;;
23113;SDS011;11726;50.122;8.832;2023-07-29T00:37:59;7.25;;;2.75;;
23113;SDS011;11726;50.122;8.832;2023-07-29T00:40:27;5.45;;;2.63;;
23113;SDS011;11726;50.122;8.832;2023-07-29T00:42:55;5.13;;;2.67;;
23113;SDS011;11726;50.122;8.832;2023-07-29T00:45:21;3.90;;;2.95;;
23113;SDS011;11726;50.122;8.832;2023-07-29T00:47:50;2.92;;;1.98;;
23113;SDS011;11726;50.122;8.832;2023-07-29T00:50:17;4.45;;;2.80;;
23113;SDS011;11726;50.122;8.832;2023-07-29T00:52:44;11.23;;;2.70;;
23113;SDS011;11726;50.122;8.832;2023-07-29T00:55:11;3.65;;;2.90;;
23113;SDS011;11726;50.122;8.832;2023-07-29T00:57:38;3.45;;;2.80;;
23113;SDS011;11726;50.122;8.832;2023-07-29T01:00:06;5.97;;;3.08;;
23113;SDS011;11726;50.122;8.832;2023-07-29T01:02:35;4.03;;;2.95;;
23113;SDS011;11726;50.122;8.832;2023-07-29T01:05:01;4.05;;;3.00;;
23113;SDS011;11726;50.122;8.832;2023-07-29T01:10:16;4.35;;;3.10;;
23113;SDS011;11726;50.122;8.832;2023-07-29T01:13:02;4.70;;;2.53;;
23113;SDS011;11726;50.122;8.832;2023-07-29T01:18:22;5.32;;;2.42;;
23113;SDS011;11726;50.122;8.832;2023-07-29T01:20:59;3.25;;;2.42;;
23113;SDS011;11726;50.122;8.832;2023-07-29T01:23:33;3.10;;;2.55;;
23113;SDS011;11726;50.122;8.832;2023-07-29T01:26:01;2.50;;;2.30;;
23113;SDS011;11726;50.122;8.832;2023-07-29T01:28:28;5.15;;;2.38;;
23113;SDS011;11726;50.122;8.832;2023-07-29T01:31:07;4.68;;;3.08;;
23113;SDS011;11726;50.122;8.832;2023-07-29T01:36:49;5.05;;;2.70;;
23113;SDS011;11726;50.122;8.832;2023-07-29T01:39:17;2.85;;;2.38;;
23113;SDS011;11726;50.122;8.832;2023-07-29T01:41:48;2.50;;;2.30;;
23113;SDS011;11726;50.122;8.832;2023-07-29T01:44:15;4.03;;;2.40;;
23113;SDS011;11726;50.122;8.832;2023-07-29T01:46:44;3.97;;;2.30;;
23113;SDS011;11726;50.122;8.832;2023-07-29T01:49:11;2.83;;;2.45;;
23113;SDS011;11726;50.122;8.832;2023-07-29T01:51:37;5.40;;;2.38;;
23113;SDS011;11726;50.122;8.832;2023-07-29T01:54:04;3.33;;;2.78;;
23113;SDS011;11726;50.122;8.832;2023-07-29T01:56:30;3.72;;;2.80;;
23113;SDS011;11726;50.122;8.832;2023-07-29T01:58:57;5.85;;;3.17;;
23113;SDS011;11726;50.122;8.832;2023-07-29T02:01:24;9.55;;;2.70;;
23113;SDS011;11726;50.122;8.832;2023-07-29T02:03:50;3.78;;;2.80;;
23113;SDS011;11726;50.122;8.832;2023-07-29T02:06:21;5.85;;;2.80;;
23113;SDS011;11726;50.122;8.832;2023-07-29T02:08:48;5.25;;;2.78;;
23113;SDS011;11726;50.122;8.832;2023-07-29T02:11:14;3.85;;;2.70;;
23113;SDS011;11726;50.122;8.832;2023-07-29T02:13:41;3.22;;;2.80;;
23113;SDS011;11726;50.122;8.832;2023-07-29T02:16:08;5.57;;;3.25;;
23113;SDS011;11726;50.122;8.832;2023-07-29T02:18:34;4.22;;;3.17;;
23113;SDS011;11726;50.122;8.832;2023-07-29T02:21:01;4.85;;;2.60;;
23113;SDS011;11726;50.122;8.832;2023-07-29T02:23:28;5.97;;;2.80;;
23113;SDS011;11726;50.122;8.832;2023-07-29T02:25:54;4.40;;;2.17;;
23113;SDS011;11726;50.122;8.832;2023-07-29T02:28:21;3.10;;;2.75;;
23113;SDS011;11726;50.122;8.832;2023-07-29T02:30:48;3.03;;;2.60;;
23113;SDS011;11726;50.122;8.832;2023-07-29T02:33:40;4.13;;;3.22;;
23113;SDS011;11726;50.122;8.832;2023-07-29T02:36:07;3.92;;;2.92;;
23113;SDS011;11726;50.122;8.832;2023-07-29T02:38:33;5.13;;;3.22;;
23113;SDS011;11726;50.122;8.832;2023-07-29T02:41:00;7.50;;;3.33;;
23113;SDS011;11726;50.122;8.832;2023-07-29T02:43:27;3.35;;;2.78;;
23113;SDS011;11726;50.122;8.832;2023-07-29T02:45:53;3.47;;;3.17;;
23113;SDS011;11726;50.122;8.832;2023-07-29T02:48:20;3.28;;;2.70;;
23113;SDS011;11726;50.122;8.832;2023-07-29T02:50:46;3.55;;;2.80;;
23113;SDS011;11726;50.122;8.832;2023-07-29T02:53:13;3.45;;;3.03;;
23113;SDS011;11726;50.122;8.832;2023-07-29T02:55:40;2.47;;;2.28;;
23113;SDS011;11726;50.122;8.832;2023-07-29T02:58:07;3.42;;;2.75;;
23113;SDS011;11726;50.122;8.832;2023-07-29T03:00:33;4.63;;;2.88;;
23113;SDS011;11726;50.122;8.832;2023-07-29T03:03:01;3.50;;;2.97;;
23113;SDS011;11726;50.122;8.832;2023-07-29T03:05:28;3.95;;;2.65;;
23113;SDS011;11726;50.122;8.832;2023-07-29T03:07:55;4.75;;;3.08;;
23113;SDS011;11726;50.122;8.832;2023-07-29T03:10:21;6.82;;;3.58;;
23113;SDS011;11726;50.122;8.832;2023-07-29T03:12:48;4.70;;;3.00;;
23113;SDS011;11726;50.122;8.832;2023-07-29T03:15:15;4.05;;;3.05;;
23113;SDS011;11726;50.122;8.832;2023-07-29T03:17:42;6.10;;;3.13;;
23113;SDS011;11726;50.122;8.832;2023-07-29T03:20:08;3.63;;;3.30;;
23113;SDS011;11726;50.122;8.832;2023-07-29T03:22:35;3.80;;;2.72;;
23113;SDS011;11726;50.122;8.832;2023-07-29T03:25:02;5.88;;;3.50;;
23113;SDS011;11726;50.122;8.832;2023-07-29T03:27:29;4.22;;;3.50;;
23113;SDS011;11726;50.122;8.832;2023-07-29T03:29:56;4.30;;;3.00;;
23113;SDS011;11726;50.122;8.832;2023-07-29T03:32:23;5.20;;;3.88;;
23113;SDS011;11726;50.122;8.832;2023-07-29T03:34:49;4.93;;;3.53;;
23113;SDS011;11726;50.122;8.832;2023-07-29T03:37:16;4.30;;;3.40;;
23113;SDS011;11726;50.122;8.832;2023-07-29T03:39:42;4.13;;;3.10;;
23113;SDS011;11726;50.122;8.832;2023-07-29T03:42:09;6.60;;;3.33;;
23113;SDS011;11726;50.122;8.832;2023-07-29T03:44:36;3.22;;;2.83;;
23113;SDS011;11726;50.122;8.832;2023-07-29T03:47:05;5.20;;;3.90;;
23113;SDS011;11726;50.122;8.832;2023-07-29T03:49:32;5.00;;;3.47;;
23113;SDS011;11726;50.122;8.832;2023-07-29T03:51:58;3.28;;;2.97;;
23113;SDS011;11726;50.122;8.832;2023-07-29T03:54:25;3.35;;;2.75;;
23113;SDS011;11726;50.122;8.832;2023-07-29T03:56:52;4.05;;;3.50;;
23113;SDS011;11726;50.122;8.832;2023-07-29T03:59:18;4.72;;;3.30;;
23113;SDS011;11726;50.122;8.832;2023-07-29T04:01:45;4.80;;;3.08;;
23113;SDS011;11726;50.122;8.832;2023-07-29T04:04:12;4.55;;;3.25;;
23113;SDS011;11726;50.122;8.832;2023-07-29T04:06:39;3.35;;;2.95;;
23113;SDS011;11726;50.122;8.832;2023-07-29T04:09:05;3.40;;;3.10;;
23113;SDS011;11726;50.122;8.832;2023-07-29T04:11:32;7.85;;;3.47;;
23113;SDS011;11726;50.122;8.832;2023-07-29T04:13:58;3.35;;;2.95;;
23113;SDS011;11726;50.122;8.832;2023-07-29T04:16:25;3.15;;;2.83;;
23113;SDS011;11726;50.122;8.832;2023-07-29T04:18:52;6.00;;;3.42;;
23113;SDS011;11726;50.122;8.832;2023-07-29T04:21:19;5.25;;;3.10;;
23113;SDS011;11726;50.122;8.832;2023-07-29T04:23:46;3.70;;;3.40;;
23113;SDS011;11726;50.122;8.832;2023-07-29T04:26:12;6.50;;;3.15;;
23113;SDS011;11726;50.122;8.832;2023-07-29T04:28:39;7.00;;;3.50;;
23113;SDS011;11726;50.122;8.832;2023-07-29T04:31:06;4.70;;;3.60;;
23113;SDS011;11726;50.122;8.832;2023-07-29T04:33:32;5.40;;;3.13;;
23113;SDS011;11726;50.122;8.832;2023-07-29T04:36:02;6.53;;;3.30;;
23113;SDS011;11726;50.122;8.832;2023-07-29T04:38:32;4.95;;;3.50;;
23113;SDS011;11726;50.122;8.832;2023-07-29T04:41:00;5.68;;;3.08;;
23113;SDS011;11726;50.122;8.832;2023-07-29T04:43:33;7.60;;;3.50;;
23113;SDS011;11726;50.122;8.832;2023-07-29T04:45:59;4.95;;;2.95;;
23113;SDS011;11726;50.122;8.832;2023-07-29T04:48:26;7.53;;;3.65;;
23113;SDS011;11726;50.122;8.832;2023-07-29T04:50:53;5.80;;;3.25;;
23113;SDS011;11726;50.122;8.832;2023-07-29T04:53:19;6.38;;;3.00;;
23113;SDS011;11726;50.122;8.832;2023-07-29T04:55:46;5.68;;;2.70;;
23113;SDS011;11726;50.122;8.832;2023-07-29T04:58:13;2.97;;;2.67;;
23113;SDS011;11726;50.122;8.832;2023-07-29T05:00:39;4.32;;;3.45;;
23113;SDS011;11726;50.122;8.832;2023-07-29T05:03:06;4.15;;;3.00;;
23113;SDS011;11726;50.122;8.832;2023-07-29T05:05:33;7.80;;;3.63;;
23113;SDS011;11726;50.122;8.832;2023-07-29T05:08:00;3.70;;;3.15;;
23113;SDS011;11726;50.122;8.832;2023-07-29T05:10:26;3.92;;;3.17;;
23113;SDS011;11726;50.122;8.832;2023-07-29T05:12:53;4.20;;;3.25;;
23113;SDS011;11726;50.122;8.832;2023-07-29T05:15:20;3.72;;;3.28;;
23113;SDS011;11726;50.122;8.832;2023-07-29T05:17:46;5.43;;;3.10;;
23113;SDS011;11726;50.122;8.832;2023-07-29T05:20:13;6.45;;;3.20;;
23113;SDS011;11726;50.122;8.832;2023-07-29T05:22:40;4.95;;;3.40;;
23113;SDS011;11726;50.122;8.832;2023-07-29T05:25:06;3.78;;;2.80;;
23113;SDS011;11726;50.122;8.832;2023-07-29T05:27:33;4.18;;;3.03;;
23113;SDS011;11726;50.122;8.832;2023-07-29T05:30:00;5.38;;;3.10;;
23113;SDS011;11726;50.122;8.832;2023-07-29T05:32:27;4.15;;;2.83;;
23113;SDS011;11726;50.122;8.832;2023-07-29T05:34:53;4.20;;;3.25;;
23113;SDS011;11726;50.122;8.832;2023-07-29T05:37:20;3.67;;;3.05;;
23113;SDS011;11726;50.122;8.832;2023-07-29T05:39:47;5.57;;;3.70;;
23113;SDS011;11726;50.122;8.832;2023-07-29T05:42:13;5.13;;;3.33;;
23113;SDS011;11726;50.122;8.832;2023-07-29T05:44:40;9.48;;;3.80;;
23113;SDS011;11726;50.122;8.832;2023-07-29T05:47:07;7.10;;;4.40;;
23113;SDS011;11726;50.122;8.832;2023-07-29T05:49:34;24.08;;;8.02;;
23113;SDS011;11726;50.122;8.832;2023-07-29T05:52:00;15.40;;;6.00;;
23113;SDS011;11726;50.122;8.832;2023-07-29T05:54:27;8.23;;;3.78;;
23113;SDS011;11726;50.122;8.832;2023-07-29T05:56:54;19.08;;;5.05;;
23113;SDS011;11726;50.122;8.832;2023-07-29T05:59:20;7.15;;;3.72;;
23113;SDS011;11726;50.122;8.832;2023-07-29T06:01:47;4.72;;;2.88;;
23113;SDS011;11726;50.122;8.832;2023-07-29T06:04:14;4.95;;;2.78;;
23113;SDS011;11726;50.122;8.832;2023-07-29T06:06:41;3.63;;;3.10;;
23113;SDS011;11726;50.122;8.832;2023-07-29T06:09:07;5.45;;;3.05;;
23113;SDS011;11726;50.122;8.832;2023-07-29T06:11:34;4.43;;;2.58;;
23113;SDS011;11726;50.122;8.832;2023-07-29T06:14:01;4.57;;;2.30;;
23113;SDS011;11726;50.122;8.832;2023-07-29T06:16:27;3.08;;;2.28;;
23113;SDS011;11726;50.122;8.832;2023-07-29T06:18:54;3.13;;;2.08;;
23113;SDS011;11726;50.122;8.832;2023-07-29T06:21:21;2.95;;;2.30;;
23113;SDS011;11726;50.122;8.832;2023-07-29T06:23:48;4.28;;;2.42;;
23113;SDS011;11726;50.122;8.832;2023-07-29T06:26:14;3.53;;;2.47;;
23113;SDS011;11726;50.122;8.832;2023-07-29T06:28:41;2.22;;;1.95;;
23113;SDS011;11726;50.122;8.832;2023-07-29T06:31:07;6.25;;;2.70;;
23113;SDS011;11726;50.122;8.832;2023-07-29T06:33:34;4.15;;;2.45;;
23113;SDS011;11726;50.122;8.832;2023-07-29T06:36:01;4.32;;;2.60;;
23113;SDS011;11726;50.122;8.832;2023-07-29T06:38:28;3.63;;;2.00;;
23113;SDS011;11726;50.122;8.832;2023-07-29T06:40:54;7.82;;;2.15;;
23113;SDS011;11726;50.122;8.832;2023-07-29T06:43:21;11.98;;;4.20;;
23113;SDS011;11726;50.122;8.832;2023-07-29T06:45:48;5.93;;;3.28;;
23113;SDS011;11726;50.122;8.832;2023-07-29T06:48:14;7.28;;;3.25;;
23113;SDS011;11726;50.122;8.832;2023-07-29T06:50:41;6.90;;;3.05;;
23113;SDS011;11726;50.122;8.832;2023-07-29T06:53:08;10.73;;;3.38;;
23113;SDS011;11726;50.122;8.832;2023-07-29T06:55:35;5.30;;;3.33;;
23113;SDS011;11726;50.122;8.832;2023-07-29T06:58:02;4.13;;;2.90;;
23113;SDS011;11726;50.122;8.832;2023-07-29T07:00:29;8.35;;;2.90;;
23113;SDS011;11726;50.122;8.832;2023-07-29T07:02:56;5.20;;;2.88;;
23113;SDS011;11726;50.122;8.832;2023-07-29T07:05:23;5.32;;;2.50;;
23113;SDS011;11726;50.122;8.832;2023-07-29T07:07:49;5.68;;;2.53;;
23113;SDS011;11726;50.122;8.832;2023-07-29T07:10:16;3.63;;;2.80;;
23113;SDS011;11726;50.122;8.832;2023-07-29T07:12:42;2.90;;;2.60;;
23113;SDS011;11726;50.122;8.832;2023-07-29T07:15:09;4.63;;;2.42;;
23113;SDS011;11726;50.122;8.832;2023-07-29T07:17:36;4.18;;;2.80;;
23113;SDS011;11726;50.122;8.832;2023-07-29T07:20:03;3.10;;;2.38;;
23113;SDS011;11726;50.122;8.832;2023-07-29T07:22:30;6.07;;;2.30;;
23113;SDS011;11726;50.122;8.832;2023-07-29T07:24:56;4.53;;;2.35;;
23113;SDS011;11726;50.122;8.832;2023-07-29T07:27:23;5.07;;;2.20;;
23113;SDS011;11726;50.122;8.832;2023-07-29T07:29:50;2.95;;;2.45;;
23113;SDS011;11726;50.122;8.832;2023-07-29T07:32:16;3.38;;;2.58;;
23113;SDS011;11726;50.122;8.832;2023-07-29T07:34:43;5.75;;;2.72;;
23113;SDS011;11726;50.122;8.832;2023-07-29T07:37:09;3.42;;;2.50;;
23113;SDS011;11726;50.122;8.832;2023-07-29T07:39:36;3.05;;;2.58;;
23113;SDS011;11726;50.122;8.832;2023-07-29T07:42:03;9.93;;;3.25;;
23113;SDS011;11726;50.122;8.832;2023-07-29T07:44:30;4.28;;;2.90;;
23113;SDS011;11726;50.122;8.832;2023-07-29T07:46:56;4.15;;;2.38;;
23113;SDS011;11726;50.122;8.832;2023-07-29T07:49:23;4.05;;;2.80;;
23113;SDS011;11726;50.122;8.832;2023-07-29T07:51:50;4.30;;;3.35;;
23113;SDS011;11726;50.122;8.832;2023-07-29T07:54:17;3.53;;;2.70;;
23113;SDS011;11726;50.122;8.832;2023-07-29T07:56:43;5.72;;;3.65;;
23113;SDS011;11726;50.122;8.832;2023-07-29T07:59:10;4.22;;;2.83;;
23113;SDS011;11726;50.122;8.832;2023-07-29T08:01:37;8.25;;;2.80;;
23113;SDS011;11726;50.122;8.832;2023-07-29T08:04:05;5.45;;;2.47;;
23113;SDS011;11726;50.122;8.832;2023-07-29T08:06:32;7.68;;;3.00;;
23113;SDS011;11726;50.122;8.832;2023-07-29T08:08:59;5.88;;;2.78;;
23113;SDS011;11726;50.122;8.832;2023-07-29T08:11:26;3.85;;;2.80;;
23113;SDS011;11726;50.122;8.832;2023-07-29T08:13:53;3.78;;;2.42;;
23113;SDS011;11726;50.122;8.832;2023-07-29T08:16:19;5.28;;;3.50;;
23113;SDS011;11726;50.122;8.832;2023-07-29T08:18:46;4.43;;;2.97;;
23113;SDS011;11726;50.122;8.832;2023-07-29T08:21:13;4.63;;;3.10;;
23113;SDS011;11726;50.122;8.832;2023-07-29T08:23:40;6.72;;;2.90;;
23113;SDS011;11726;50.122;8.832;2023-07-29T08:26:07;3.55;;;2.55;;
23113;SDS011;11726;50.122;8.832;2023-07-29T08:28:37;4.05;;;3.08;;
23113;SDS011;11726;50.122;8.832;2023-07-29T08:31:05;5.40;;;3.65;;
23113;SDS011;11726;50.122;8.832;2023-07-29T08:33:32;3.47;;;3.17;;
23113;SDS011;11726;50.122;8.832;2023-07-29T08:36:00;3.53;;;3.13;;
23113;SDS011;11726;50.122;8.832;2023-07-29T08:38:27;3.63;;;2.90;;
23113;SDS011;11726;50.122;8.832;2023-07-29T08:41:06;2.33;;;2.13;;
23113;SDS011;11726;50.122;8.832;2023-07-29T08:43:38;5.00;;;2.58;;
23113;SDS011;11726;50.122;8.832;2023-07-29T08:46:09;2.47;;;2.22;;
23113;SDS011;11726;50.122;8.832;2023-07-29T08:48:37;2.65;;;1.55;;
23113;SDS011;11726;50.122;8.832;2023-07-29T08:51:07;2.30;;;1.85;;
23113;SDS011;11726;50.122;8.832;2023-07-29T08:53:35;6.50;;;2.35;;
23113;SDS011;11726;50.122;8.832;2023-07-29T08:56:02;2.17;;;1.65;;
23113;SDS011;11726;50.122;8.832;2023-07-29T08:58:29;1.48;;;1.38;;
23113;SDS011;11726;50.122;8.832;2023-07-29T09:00:56;2.30;;;1.50;;
23113;SDS011;11726;50.122;8.832;2023-07-29T09:03:23;2.65;;;1.60;;
23113;SDS011;11726;50.122;8.832;2023-07-29T09:05:50;3.28;;;1.85;;
23113;SDS011;11726;50.122;8.832;2023-07-29T09:08:18;2.97;;;1.40;;
23113;SDS011;11726;50.122;8.832;2023-07-29T09:10:45;2.20;;;1.20;;
23113;SDS011;11726;50.122;8.832;2023-07-29T09:13:12;1.52;;;1.42;;
23113;SDS011;11726;50.122;8.832;2023-07-29T09:15:38;1.55;;;1.40;;
23113;SDS011;11726;50.122;8.832;2023-07-29T09:18:15;2.15;;;1.50;;
23113;SDS011;11726;50.122;8.832;2023-07-29T09:20:48;1.50;;;1.40;;
23113;SDS011;11726;50.122;8.832;2023-07-29T09:23:15;2.17;;;1.20;;
23113;SDS011;11726;50.122;8.832;2023-07-29T09:25:42;1.20;;;0.82;;
23113;SDS011;11726;50.122;8.832;2023-07-29T09:28:13;2.72;;;1.20;;
23113;SDS011;11726;50.122;8.832;2023-07-29T09:30:44;1.73;;;1.20;;
23113;SDS011;11726;50.122;8.832;2023-07-29T09:33:12;5.90;;;1.02;;
23113;SDS011;11726;50.122;8.832;2023-07-29T09:35:39;1.10;;;0.90;;
23113;SDS011;11726;50.122;8.832;2023-07-29T09:38:06;1.67;;;1.20;;
23113;SDS011;11726;50.122;8.832;2023-07-29T09:40:40;1.08;;;0.90;;
23113;SDS011;11726;50.122;8.832;2023-07-29T09:43:07;1.38;;;0.93;;
23113;SDS011;11726;50.122;8.832;2023-07-29T09:45:36;1.80;;;1.00;;
23113;SDS011;11726;50.122;8.832;2023-07-29T09:48:04;1.35;;;1.00;;
23113;SDS011;11726;50.122;8.832;2023-07-29T09:50:35;1.23;;;1.13;;
23113;SDS011;11726;50.122;8.832;2023-07-29T09:53:02;4.53;;;1.13;;
23113;SDS011;11726;50.122;8.832;2023-07-29T09:55:32;4.28;;;0.95;;
23113;SDS011;11726;50.122;8.832;2023-07-29T09:58:00;1.33;;;0.70;;
23113;SDS011;11726;50.122;8.832;2023-07-29T10:00:29;1.27;;;0.98;;
23113;SDS011;11726;50.122;8.832;2023-07-29T10:02:59;5.68;;;0.85;;
23113;SDS011;11726;50.122;8.832;2023-07-29T10:05:27;2.08;;;0.90;;
23113;SDS011;11726;50.122;8.832;2023-07-29T10:07:55;1.30;;;0.75;;
23113;SDS011;11726;50.122;8.832;2023-07-29T10:10:22;4.05;;;0.90;;
23113;SDS011;11726;50.122;8.832;2023-07-29T10:12:49;1.52;;;1.10;;
23113;SDS011;11726;50.122;8.832;2023-07-29T10:15:16;0.82;;;0.82;;
23113;SDS011;11726;50.122;8.832;2023-07-29T10:17:43;1.13;;;0.90;;
23113;SDS011;11726;50.122;8.832;2023-07-29T10:20:15;1.00;;;1.00;;
23113;SDS011;11726;50.122;8.832;2023-07-29T10:22:43;3.67;;;0.95;;
23113;SDS011;11726;50.122;8.832;2023-07-29T10:25:15;1.40;;;1.13;;
23113;SDS011;11726;50.122;8.832;2023-07-29T10:27:46;1.65;;;1.20;;
23113;SDS011;11726;50.122;8.832;2023-07-29T10:30:15;1.45;;;1.20;;
23113;SDS011;11726;50.122;8.832;2023-07-29T10:32:42;1.25;;;1.08;;
23113;SDS011;11726;50.122;8.832;2023-07-29T10:35:13;3.22;;;1.10;;
23113;SDS011;11726;50.122;8.832;2023-07-29T10:37:41;1.15;;;1.00;;
23113;SDS011;11726;50.122;8.832;2023-07-29T10:40:09;3.40;;;0.90;;
23113;SDS011;11726;50.122;8.832;2023-07-29T10:42:37;2.00;;;1.13;;
23113;SDS011;11726;50.122;8.832;2023-07-29T10:45:17;1.00;;;0.90;;
23113;SDS011;11726;50.122;8.832;2023-07-29T10:47:47;1.30;;;1.00;;
23113;SDS011;11726;50.122;8.832;2023-07-29T10:50:21;1.83;;;1.20;;
23113;SDS011;11726;50.122;8.832;2023-07-29T10:52:49;6.03;;;1.27;;
23113;SDS011;11726;50.122;8.832;2023-07-29T11:00:43;1.05;;;0.90;;
23113;SDS011;11726;50.122;8.832;2023-07-29T11:03:11;3.20;;;1.00;;
23113;SDS011;11726;50.122;8.832;2023-07-29T11:08:18;2.72;;;1.05;;
23113;SDS011;11726;50.122;8.832;2023-07-29T11:10:59;1.00;;;0.93;;
23113;SDS011;11726;50.122;8.832;2023-07-29T11:13:35;3.40;;;1.20;;
23113;SDS011;11726;50.122;8.832;2023-07-29T11:16:03;2.42;;;1.00;;
23113;SDS011;11726;50.122;8.832;2023-07-29T11:18:34;1.55;;;1.00;;
23113;SDS011;11726;50.122;8.832;2023-07-29T11:21:02;1.10;;;0.93;;
23113;SDS011;11726;50.122;8.832;2023-07-29T11:23:30;3.25;;;0.80;;
23113;SDS011;11726;50.122;8.832;2023-07-29T11:26:01;1.77;;;1.17;;
23113;SDS011;11726;50.122;8.832;2023-07-29T11:28:29;1.25;;;1.15;;
23113;SDS011;11726;50.122;8.832;2023-07-29T11:30:57;1.70;;;1.00;;
23113;SDS011;11726;50.122;8.832;2023-07-29T11:33:25;2.55;;;1.13;;
23113;SDS011;11726;50.122;8.832;2023-07-29T11:35:54;1.90;;;1.13;;
23113;SDS011;11726;50.122;8.832;2023-07-29T11:38:22;2.35;;;1.10;;
23113;SDS011;11726;50.122;8.832;2023-07-29T11:40:59;1.13;;;1.05;;
23113;SDS011;11726;50.122;8.832;2023-07-29T11:43:28;3.10;;;1.20;;
23113;SDS011;11726;50.122;8.832;2023-07-29T11:45:55;2.55;;;1.25;;
23113;SDS011;11726;50.122;8.832;2023-07-29T11:48:28;3.95;;;1.02;;
23113;SDS011;11726;50.122;8.832;2023-07-29T11:50:59;1.20;;;1.00;;
23113;SDS011;11726;50.122;8.832;2023-07-29T11:53:29;2.35;;;1.20;;
23113;SDS011;11726;50.122;8.832;2023-07-29T11:55:57;2.00;;;0.98;;
23113;SDS011;11726;50.122;8.832;2023-07-29T11:58:24;1.63;;;1.10;;
23113;SDS011;11726;50.122;8.832;2023-07-29T12:00:51;1.33;;;1.10;;
23113;SDS011;11726;50.122;8.832;2023-07-29T12:03:18;1.90;;;1.02;;
23113;SDS011;11726;50.122;8.832;2023-07-29T12:05:46;1.13;;;0.90;;
23113;SDS011;11726;50.122;8.832;2023-07-29T12:08:15;4.30;;;1.08;;
23113;SDS011;11726;50.122;8.832;2023-07-29T12:10:42;2.05;;;1.08;;
23113;SDS011;11726;50.122;8.832;2023-07-29T12:13:08;0.93;;;0.88;;
23113;SDS011;11726;50.122;8.832;2023-07-29T12:15:37;1.17;;;1.08;;
23113;SDS011;11726;50.122;8.832;2023-07-29T12:18:05;1.40;;;1.30;;
23113;SDS011;11726;50.122;8.832;2023-07-29T12:20:32;1.30;;;1.20;;
23113;SDS011;11726;50.122;8.832;2023-07-29T12:23:00;2.50;;;1.08;;
23113;SDS011;11726;50.122;8.832;2023-07-29T12:25:33;2.55;;;1.27;;
23113;SDS011;11726;50.122;8.832;2023-07-29T12:28:04;2.58;;;1.27;;
23113;SDS011;11726;50.122;8.832;2023-07-29T12:30:32;1.65;;;1.13;;
23113;SDS011;11726;50.122;8.832;2023-07-29T12:32:59;2.88;;;1.27;;
23113;SDS011;11726;50.122;8.832;2023-07-29T12:35:33;1.88;;;0.90;;
23113;SDS011;11726;50.122;8.832;2023-07-29T12:38:03;1.60;;;1.13;;
23113;SDS011;11726;50.122;8.832;2023-07-29T12:40:30;1.20;;;1.10;;
23113;SDS011;11726;50.122;8.832;2023-07-29T12:42:57;1.42;;;1.20;;
23113;SDS011;11726;50.122;8.832;2023-07-29T12:45:24;1.83;;;1.00;;
23113;SDS011;11726;50.122;8.832;2023-07-29T12:47:53;1.10;;;1.00;;
23113;SDS011;11726;50.122;8.832;2023-07-29T12:50:20;1.85;;;1.30;;
23113;SDS011;11726;50.122;8.832;2023-07-29T12:52:47;1.50;;;1.13;;
23113;SDS011;11726;50.122;8.832;2023-07-29T12:55:14;1.42;;;1.17;;
23113;SDS011;11726;50.122;8.832;2023-07-29T12:57:41;1.38;;;1.20;;
23113;SDS011;11726;50.122;8.832;2023-07-29T13:00:09;1.67;;;1.30;;
23113;SDS011;11726;50.122;8.832;2023-07-29T13:02:36;1.20;;;1.05;;
23113;SDS011;11726;50.122;8.832;2023-07-29T13:05:03;4.10;;;1.55;;
23113;SDS011;11726;50.122;8.832;2023-07-29T13:07:30;1.58;;;1.25;;
23113;SDS011;11726;50.122;8.832;2023-07-29T13:09:57;6.03;;;1.30;;
23113;SDS011;11726;50.122;8.832;2023-07-29T13:12:23;1.58;;;1.27;;
23113;SDS011;11726;50.122;8.832;2023-07-29T13:14:50;2.63;;;1.40;;
23113;SDS011;11726;50.122;8.832;2023-07-29T13:17:17;1.50;;;1.30;;
23113;SDS011;11726;50.122;8.832;2023-07-29T13:19:44;1.77;;;1.30;;
23113;SDS011;11726;50.122;8.832;2023-07-29T13:22:10;2.03;;;1.20;;
23113;SDS011;11726;50.122;8.832;2023-07-29T13:24:37;2.17;;;1.38;;
23113;SDS011;11726;50.122;8.832;2023-07-29T13:27:04;1.00;;;1.00;;
23113;SDS011;11726;50.122;8.832;2023-07-29T13:29:31;1.88;;;1.00;;
23113;SDS011;11726;50.122;8.832;2023-07-29T13:31:57;1.58;;;1.30;;
23113;SDS011;11726;50.122;8.832;2023-07-29T13:34:24;1.20;;;1.10;;
23113;SDS011;11726;50.122;8.832;2023-07-29T13:36:51;1.30;;;1.20;;
23113;SDS011;11726;50.122;8.832;2023-07-29T13:39:17;2.15;;;1.05;;
23113;SDS011;11726;50.122;8.832;2023-07-29T13:41:44;2.55;;;1.20;;
23113;SDS011;11726;50.122;8.832;2023-07-29T13:44:11;2.50;;;1.23;;
23113;SDS011;11726;50.122;8.832;2023-07-29T13:46:38;0.95;;;0.93;;
23113;SDS011;11726;50.122;8.832;2023-07-29T13:49:05;1.20;;;1.10;;
23113;SDS011;11726;50.122;8.832;2023-07-29T13:51:31;1.60;;;1.35;;
23113;SDS011;11726;50.122;8.832;2023-07-29T13:53:58;2.03;;;1.00;;
23113;SDS011;11726;50.122;8.832;2023-07-29T13:56:25;1.60;;;0.95;;
23113;SDS011;11726;50.122;8.832;2023-07-29T13:58:51;1.30;;;1.10;;
23113;SDS011;11726;50.122;8.832;2023-07-29T14:01:18;1.40;;;1.30;;
23113;SDS011;11726;50.122;8.832;2023-07-29T14:03:45;1.60;;;1.15;;
23113;SDS011;11726;50.122;8.832;2023-07-29T14:06:12;1.48;;;1.10;;
23113;SDS011;11726;50.122;8.832;2023-07-29T14:08:38;1.25;;;1.15;;
23113;SDS011;11726;50.122;8.832;2023-07-29T14:11:07;1.45;;;1.05;;
23113;SDS011;11726;50.122;8.832;2023-07-29T14:13:33;3.90;;;1.42;;
23113;SDS011;11726;50.122;8.832;2023-07-29T14:16:01;1.40;;;1.15;;
23113;SDS011;11726;50.122;8.832;2023-07-29T14:18:28;2.25;;;1.20;;
23113;SDS011;11726;50.122;8.832;2023-07-29T14:20:56;1.20;;;1.10;;
23113;SDS011;11726;50.122;8.832;2023-07-29T14:23:22;1.17;;;1.08;;
23113;SDS011;11726;50.122;8.832;2023-07-29T14:25:49;1.20;;;1.00;;
23113;SDS011;11726;50.122;8.832;2023-07-29T14:28:16;7.45;;;1.27;;
23113;SDS011;11726;50.122;8.832;2023-07-29T14:30:43;5.60;;;1.10;;
23113;SDS011;11726;50.122;8.832;2023-07-29T14:33:09;4.70;;;1.20;;
23113;SDS011;11726;50.122;8.832;2023-07-29T14:35:36;5.00;;;1.23;;
23113;SDS011;11726;50.122;8.832;2023-07-29T14:38:03;1.52;;;1.17;;
23113;SDS011;11726;50.122;8.832;2023-07-29T14:40:30;1.63;;;1.02;;
23113;SDS011;11726;50.122;8.832;2023-07-29T14:42:56;1.42;;;1.00;;
23113;SDS011;11726;50.122;8.832;2023-07-29T14:45:23;1.95;;;1.20;;
23113;SDS011;11726;50.122;8.832;2023-07-29T14:47:50;1.30;;;1.20;;
23113;SDS011;11726;50.122;8.832;2023-07-29T14:50:17;1.38;;;1.15;;
23113;SDS011;11726;50.122;8.832;2023-07-29T14:52:43;1.35;;;1.25;;
23113;SDS011;11726;50.122;8.832;2023-07-29T14:55:10;1.25;;;1.00;;
23113;SDS011;11726;50.122;8.832;2023-07-29T14:57:37;1.35;;;1.08;;
23113;SDS011;11726;50.122;8.832;2023-07-29T15:00:03;1.50;;;1.25;;
23113;SDS011;11726;50.122;8.832;2023-07-29T15:02:30;1.40;;;1.15;;
23113;SDS011;11726;50.122;8.832;2023-07-29T15:04:57;2.10;;;1.10;;
23113;SDS011;11726;50.122;8.832;2023-07-29T15:07:24;1.38;;;1.15;;